Time;durP1;ratioP1;P1;durP2;ratioP2;P2;SDS_P1;SDS_P2;PMS_P1;PMS_P2;Temp;Humidity;BMP_temperature;BMP_pressure;BME280_temperature;BME280_humidity;BME280_pressure;Samples;Min_cycle;Max_cycle;Signal;HPM_P1;HPM_P2
2024/01/07 00:00:07;;;;;;;112.00;60.07;;;;;;;;;;4323090;32;320282;-80
2024/01/07 00:02:36;;;;;;;106.73;61.73;;;;;;;;;;4307492;32;321982;-80
2024/01/07 00:05:06;;;;;;;104.83;59.53;;;;;;;;;;4337367;33;320526;-82
2024/01/07 00:07:35;;;;;;;99.60;56.50;;;;;;;;;;4325837;32;320471;-81
2024/01/07 00:10:03;;;;;;;105.87;58.03;;;;;;;;;;4337043;32;319401;-81
2024/01/07 00:12:30;;;;;;;97.27;56.20;;;;;;;;;;4315376;32;320550;-80
2024/01/07 00:14:57;;;;;;;95.33;54.27;;;;;;;;;;4340176;32;318100;-81
2024/01/07 00:17:24;;;;;;;89.97;51.23;;;;;;;;;;4323914;33;318274;-81
2024/01/07 00:19:51;;;;;;;76.13;44.50;;;;;;;;;;4336426;33;317999;-81
2024/01/07 00:22:19;;;;;;;66.50;40.17;;;;;;;;;;4328588;33;318908;-82
2024/01/07 00:24:48;;;;;;;72.17;41.47;;;;;;;;;;4305772;33;319472;-80
2024/01/07 00:27:15;;;;;;;74.00;39.30;;;;;;;;;;4318382;33;319259;-80
2024/01/07 00:29:41;;;;;;;74.90;41.10;;;;;;;;;;4312417;32;319324;-80
2024/01/07 00:32:08;;;;;;;68.80;34.60;;;;;;;;;;4334846;32;318777;-82
2024/01/07 00:34:35;;;;;;;60.30;32.70;;;;;;;;;;4318705;32;319341;-82
2024/01/07 00:37:02;;;;;;;71.47;38.47;;;;;;;;;;4335174;32;319279;-81
2024/01/07 00:39:30;;;;;;;58.73;32.80;;;;;;;;;;4325784;32;319353;-81
2024/01/07 00:41:58;;;;;;;75.90;43.13;;;;;;;;;;4334320;32;318833;-81
2024/01/07 00:44:24;;;;;;;65.37;39.97;;;;;;;;;;4325320;32;319268;-81
2024/01/07 00:46:51;;;;;;;86.80;45.97;;;;;;;;;;4322135;32;318255;-80
2024/01/07 00:49:19;;;;;;;81.83;42.80;;;;;;;;;;4336785;32;318744;-82
2024/01/07 00:51:47;;;;;;;69.10;38.70;;;;;;;;;;4320092;32;319051;-80
2024/01/07 00:54:13;;;;;;;70.93;38.37;;;;;;;;;;4331807;32;317437;-80
2024/01/07 00:56:41;;;;;;;61.10;33.50;;;;;;;;;;4320181;32;319372;-82
2024/01/07 00:59:12;;;;;;;43.13;27.47;;;;;;;;;;4335034;32;318681;-82
2024/01/07 01:01:38;;;;;;;52.83;27.73;;;;;;;;;;4324711;32;318689;-80
2024/01/07 01:04:05;;;;;;;55.20;32.00;;;;;;;;;;4326174;32;318762;-82
2024/01/07 01:06:32;;;;;;;61.07;32.70;;;;;;;;;;4320500;32;319312;-81
2024/01/07 01:08:59;;;;;;;54.83;30.47;;;;;;;;;;4336102;32;318670;-81
2024/01/07 01:11:27;;;;;;;45.57;27.43;;;;;;;;;;4320541;33;319299;-81
2024/01/07 01:13:53;;;;;;;47.30;28.80;;;;;;;;;;4332568;33;319332;-81
2024/01/07 01:16:24;;;;;;;56.27;29.07;;;;;;;;;;4317930;33;317388;-82
2024/01/07 01:18:51;;;;;;;42.57;26.17;;;;;;;;;;4326353;32;418304;-81
2024/01/07 01:21:18;;;;;;;43.00;24.83;;;;;;;;;;4325907;32;318537;-82
2024/01/07 01:23:48;;;;;;;60.37;33.57;;;;;;;;;;4309259;32;319519;-82
2024/01/07 01:26:16;;;;;;;52.63;31.77;;;;;;;;;;4320291;32;319206;-81
2024/01/07 01:28:44;;;;;;;54.27;30.13;;;;;;;;;;4305076;32;319325;-80
2024/01/07 01:31:15;;;;;;;44.97;27.63;;;;;;;;;;4319627;32;319043;-82
2024/01/07 01:33:45;;;;;;;53.50;31.13;;;;;;;;;;4309633;32;319659;-82
2024/01/07 01:36:14;;;;;;;55.10;32.33;;;;;;;;;;4319866;32;319229;-82
2024/01/07 01:38:41;;;;;;;45.30;30.93;;;;;;;;;;4304194;32;319133;-81
2024/01/07 01:41:08;;;;;;;52.90;29.87;;;;;;;;;;4319512;32;319092;-82
2024/01/07 01:43:36;;;;;;;46.33;28.97;;;;;;;;;;4310137;32;318707;-81
2024/01/07 01:46:03;;;;;;;78.10;38.93;;;;;;;;;;4315930;32;321023;-82
2024/01/07 01:48:31;;;;;;;64.47;42.23;;;;;;;;;;4367147;32;319550;-81
2024/01/07 01:51:00;;;;;;;50.30;32.97;;;;;;;;;;4395012;32;319370;-83
2024/01/07 01:53:29;;;;;;;69.13;39.37;;;;;;;;;;4384370;32;319170;-80
2024/01/07 01:55:58;;;;;;;52.53;32.37;;;;;;;;;;4393834;32;319319;-83
2024/01/07 01:58:30;;;;;;;34.30;19.23;;;;;;;;;;4383129;32;389248;-82
2024/01/07 02:00:58;;;;;;;47.43;23.33;;;;;;;;;;4372632;32;318660;-82
2024/01/07 02:03:27;;;;;;;33.17;22.70;;;;;;;;;;4319893;33;319455;-82
2024/01/07 02:05:56;;;;;;;42.53;26.10;;;;;;;;;;4330514;32;319295;-81
2024/01/07 02:08:30;;;;;;;48.10;27.13;;;;;;;;;;4307174;32;368189;-81
2024/01/07 02:10:58;;;;;;;37.60;23.73;;;;;;;;;;4314959;32;318801;-82
2024/01/07 02:13:27;;;;;;;18.03;8.87;;;;;;;;;;4304102;32;333541;-81
2024/01/07 02:15:58;;;;;;;9.87;5.33;;;;;;;;;;4301508;32;318295;-80
2024/01/07 02:18:26;;;;;;;6.93;3.17;;;;;;;;;;4295999;32;317255;-80
2024/01/07 02:20:54;;;;;;;3.40;2.63;;;;;;;;;;4300863;32;317311;-82
2024/01/07 02:23:24;;;;;;;5.67;3.13;;;;;;;;;;4305632;32;316993;-80
2024/01/07 02:25:52;;;;;;;3.13;1.63;;;;;;;;;;4273308;32;416607;-81
2024/01/07 02:28:37;;;;;;;1.80;1.43;;;;;;;;;;4304574;32;316464;-82
2024/01/07 02:31:07;;;;;;;7.37;1.70;;;;;;;;;;4278317;32;416714;-82
2024/01/07 02:33:36;;;;;;;2.13;1.33;;;;;;;;;;4307077;33;355157;-82
2024/01/07 02:36:04;;;;;;;1.87;1.00;;;;;;;;;;4317864;33;317281;-80
2024/01/07 02:38:33;;;;;;;2.53;1.40;;;;;;;;;;4302692;33;317603;-80
2024/01/07 02:41:01;;;;;;;11.07;1.60;;;;;;;;;;4320224;33;317788;-81
2024/01/07 02:43:28;;;;;;;3.07;1.30;;;;;;;;;;4307349;33;319097;-82
2024/01/07 02:45:57;;;;;;;3.37;1.30;;;;;;;;;;4315923;33;317036;-80
2024/01/07 02:48:24;;;;;;;5.50;2.03;;;;;;;;;;4308512;33;317355;-82
2024/01/07 02:50:54;;;;;;;4.20;2.10;;;;;;;;;;4313772;33;321089;-80
2024/01/07 02:53:22;;;;;;;9.70;5.40;;;;;;;;;;4308675;33;317859;-80
2024/01/07 02:55:51;;;;;;;6.50;3.00;;;;;;;;;;4305672;33;416430;-81
2024/01/07 02:58:19;;;;;;;2.27;1.60;;;;;;;;;;4318017;33;316751;-80
2024/01/07 03:00:49;;;;;;;1.70;1.57;;;;;;;;;;4297350;32;317000;-80
2024/01/07 03:03:15;;;;;;;1.30;1.20;;;;;;;;;;4318843;33;315815;-80
2024/01/07 03:05:42;;;;;;;1.00;0.90;;;;;;;;;;4309352;33;343976;-81
2024/01/07 03:08:09;;;;;;;1.30;1.20;;;;;;;;;;4333115;33;316263;-81
2024/01/07 03:10:52;;;;;;;5.87;1.47;;;;;;;;;;4304589;32;316157;-80
2024/01/07 03:13:21;;;;;;;2.07;1.13;;;;;;;;;;4327142;32;315137;-80
2024/01/07 03:15:48;;;;;;;3.97;1.40;;;;;;;;;;4321581;33;415202;-80
2024/01/07 03:18:16;;;;;;;3.33;1.50;;;;;;;;;;4334552;33;315897;-81
2024/01/07 03:20:43;;;;;;;1.87;1.30;;;;;;;;;;4320414;32;315985;-81
2024/01/07 03:23:11;;;;;;;3.83;1.63;;;;;;;;;;4334937;33;314023;-81
2024/01/07 03:25:39;;;;;;;2.80;2.03;;;;;;;;;;4324013;33;314930;-79
2024/01/07 03:28:10;;;;;;;4.73;1.53;;;;;;;;;;4330038;33;314647;-82
2024/01/07 03:30:45;;;;;;;5.43;2.00;;;;;;;;;;4303750;33;315929;-80
2024/01/07 03:35:59;;;;;;;7.73;3.57;;;;;;;;;;4299113;33;388170;-80
2024/01/07 03:38:26;;;;;;;4.73;3.30;;;;;;;;;;4318130;33;316205;-80
2024/01/07 03:40:56;;;;;;;6.83;3.70;;;;;;;;;;4294820;32;417219;-81
2024/01/07 03:46:17;;;;;;;5.90;4.47;;;;;;;;;;4308825;33;315802;-82
2024/01/07 03:48:52;;;;;;;10.03;5.50;;;;;;;;;;4371314;32;316311;-82
2024/01/07 03:51:19;;;;;;;8.50;4.93;;;;;;;;;;4394561;32;317166;-80
2024/01/07 03:53:48;;;;;;;16.90;5.83;;;;;;;;;;4384290;32;316307;-80
2024/01/07 03:56:17;;;;;;;9.70;6.60;;;;;;;;;;4324877;32;317251;-80
2024/01/07 03:58:44;;;;;;;7.37;5.23;;;;;;;;;;4300180;33;347405;-82
2024/01/07 04:01:18;;;;;;;11.13;5.07;;;;;;;;;;4320124;33;316378;-82
2024/01/07 04:03:48;;;;;;;13.50;4.87;;;;;;;;;;4310665;33;317231;-82
2024/01/07 04:06:16;;;;;;;8.17;4.23;;;;;;;;;;4318641;33;317169;-82
2024/01/07 04:08:45;;;;;;;8.27;4.40;;;;;;;;;;4300636;32;316140;-81
2024/01/07 04:11:16;;;;;;;6.80;3.67;;;;;;;;;;4319280;32;315304;-80
2024/01/07 04:16:28;;;;;;;5.00;2.97;;;;;;;;;;4310881;32;316043;-81
2024/01/07 04:18:58;;;;;;;8.53;3.53;;;;;;;;;;4354622;32;315786;-81
2024/01/07 04:24:06;;;;;;;8.57;4.00;;;;;;;;;;4329244;32;316365;-81
2024/01/07 04:26:34;;;;;;;4.43;2.47;;;;;;;;;;4333090;32;327129;-80
2024/01/07 04:29:01;;;;;;;7.00;3.97;;;;;;;;;;4348043;32;315187;-82
2024/01/07 04:31:34;;;;;;;15.57;8.27;;;;;;;;;;4332559;32;316532;-82
2024/01/07 04:34:03;;;;;;;12.47;4.73;;;;;;;;;;4333937;32;317703;-81
2024/01/07 04:36:32;;;;;;;9.70;4.87;;;;;;;;;;4323549;32;317659;-82
2024/01/07 04:38:58;;;;;;;5.73;3.97;;;;;;;;;;4329723;32;316266;-82
2024/01/07 04:41:25;;;;;;;6.17;3.93;;;;;;;;;;4322217;32;380612;-79
2024/01/07 04:43:53;;;;;;;8.17;4.77;;;;;;;;;;4331730;32;316783;-81
2024/01/07 04:46:20;;;;;;;5.30;3.60;;;;;;;;;;4332270;32;316061;-82
2024/01/07 04:48:53;;;;;;;5.33;3.80;;;;;;;;;;4301994;32;415275;-80
2024/01/07 04:51:24;;;;;;;6.73;3.97;;;;;;;;;;4325566;32;316546;-80
2024/01/07 04:53:54;;;;;;;6.33;4.07;;;;;;;;;;4323046;32;416419;-82
2024/01/07 04:56:23;;;;;;;11.53;5.73;;;;;;;;;;4336383;32;316127;-82
2024/01/07 04:58:53;;;;;;;15.67;7.80;;;;;;;;;;4303036;32;418505;-80
2024/01/07 05:01:21;;;;;;;11.07;6.50;;;;;;;;;;4320308;32;317152;-81
2024/01/07 05:04:03;;;;;;;9.80;6.93;;;;;;;;;;4306725;32;416259;-80
2024/01/07 05:06:31;;;;;;;11.23;5.80;;;;;;;;;;4302468;32;316442;-81
2024/01/07 05:09:01;;;;;;;13.70;7.20;;;;;;;;;;4329336;32;317204;-81
2024/01/07 05:11:38;;;;;;;6.63;5.40;;;;;;;;;;4386191;32;317006;-81
2024/01/07 05:14:08;;;;;;;10.87;6.60;;;;;;;;;;4397943;32;315478;-80
2024/01/07 05:16:48;;;;;;;8.97;5.70;;;;;;;;;;4289557;33;316380;-81
2024/01/07 05:19:37;;;;;;;17.60;9.97;;;;;;;;;;4311259;33;316234;-80
2024/01/07 05:22:04;;;;;;;12.17;8.60;;;;;;;;;;4294640;33;417292;-79
2024/01/07 05:24:30;;;;;;;11.70;7.80;;;;;;;;;;4304484;32;317030;-80
2024/01/07 05:27:00;;;;;;;22.67;13.00;;;;;;;;;;4312652;32;315255;-82
2024/01/07 05:29:28;;;;;;;32.77;20.10;;;;;;;;;;4296995;32;317978;-81
2024/01/07 05:31:55;;;;;;;40.83;23.63;;;;;;;;;;4339476;32;318571;-81
2024/01/07 05:34:25;;;;;;;34.67;20.53;;;;;;;;;;4335070;32;317416;-82
2024/01/07 05:37:05;;;;;;;21.17;13.13;;;;;;;;;;4312726;32;416239;-82
2024/01/07 05:39:32;;;;;;;20.27;12.87;;;;;;;;;;4326587;32;318037;-82
2024/01/07 05:42:02;;;;;;;21.27;12.73;;;;;;;;;;4334916;32;317624;-82
2024/01/07 05:44:36;;;;;;;21.90;14.40;;;;;;;;;;4322258;32;318499;-80
2024/01/07 05:47:07;;;;;;;25.20;15.23;;;;;;;;;;4332726;32;318002;-81
2024/01/07 05:49:34;;;;;;;23.93;15.70;;;;;;;;;;4325165;32;318371;-81
2024/01/07 05:52:03;;;;;;;27.77;15.90;;;;;;;;;;4336225;32;318529;-83
2024/01/07 05:54:32;;;;;;;43.37;22.07;;;;;;;;;;4394949;32;318456;-82
2024/01/07 05:56:59;;;;;;;34.03;20.10;;;;;;;;;;4408513;32;318186;-82
2024/01/07 05:59:29;;;;;;;25.77;17.90;;;;;;;;;;4402622;32;318398;-82
2024/01/07 06:01:59;;;;;;;27.63;16.80;;;;;;;;;;4395298;32;317828;-81
2024/01/07 06:04:26;;;;;;;24.37;16.13;;;;;;;;;;4398559;32;317628;-82
2024/01/07 06:06:56;;;;;;;23.27;15.80;;;;;;;;;;4401442;32;318117;-80
2024/01/07 06:09:40;;;;;;;28.73;17.93;;;;;;;;;;4391707;32;324381;-79
2024/01/07 06:12:08;;;;;;;29.63;20.07;;;;;;;;;;4411507;32;316660;-82
2024/01/07 06:14:36;;;;;;;22.33;16.77;;;;;;;;;;4395526;32;318436;-81
2024/01/07 06:17:06;;;;;;;26.87;17.33;;;;;;;;;;4413059;32;318207;-81
2024/01/07 06:19:34;;;;;;;25.47;18.10;;;;;;;;;;4383761;32;318086;-82
2024/01/07 06:22:03;;;;;;;30.07;19.73;;;;;;;;;;4321560;32;317782;-81
2024/01/07 06:24:31;;;;;;;34.00;18.70;;;;;;;;;;4300444;33;322447;-82
2024/01/07 06:26:59;;;;;;;29.57;18.77;;;;;;;;;;4311606;32;317698;-82
2024/01/07 06:29:27;;;;;;;24.03;17.70;;;;;;;;;;4319070;32;318032;-82
2024/01/07 06:31:55;;;;;;;26.97;17.63;;;;;;;;;;4321442;32;318392;-83
2024/01/07 06:34:22;;;;;;;26.63;17.80;;;;;;;;;;4281741;32;417423;-82
2024/01/07 06:36:49;;;;;;;67.10;32.30;;;;;;;;;;4321602;32;318406;-82
2024/01/07 06:39:18;;;;;;;38.97;23.30;;;;;;;;;;4312219;32;317741;-82
2024/01/07 06:41:51;;;;;;;63.40;38.20;;;;;;;;;;4318380;32;318475;-82
2024/01/07 06:44:19;;;;;;;86.33;56.47;;;;;;;;;;4304481;32;318207;-81
2024/01/07 06:46:47;;;;;;;65.93;37.47;;;;;;;;;;4365868;32;317949;-81
2024/01/07 06:49:14;;;;;;;36.93;23.03;;;;;;;;;;4356106;32;318771;-82
2024/01/07 06:51:41;;;;;;;45.73;28.93;;;;;;;;;;4365707;32;318108;-82
2024/01/07 06:54:08;;;;;;;46.40;29.73;;;;;;;;;;4350276;32;318016;-82
2024/01/07 06:56:35;;;;;;;49.67;30.70;;;;;;;;;;4377971;32;316354;-81
2024/01/07 06:59:05;;;;;;;49.63;32.47;;;;;;;;;;4369161;32;317118;-80
2024/01/07 07:01:33;;;;;;;57.53;38.37;;;;;;;;;;4381128;32;317330;-80
2024/01/07 07:04:01;;;;;;;72.83;46.60;;;;;;;;;;4361447;32;345006;-81
2024/01/07 07:06:29;;;;;;;222.30;144.83;;;;;;;;;;4362667;32;317949;-82
2024/01/07 07:08:56;;;;;;;127.53;84.10;;;;;;;;;;4366241;32;320060;-81
2024/01/07 07:11:22;;;;;;;149.20;94.33;;;;;;;;;;4352484;32;420001;-81
2024/01/07 07:13:49;;;;;;;154.70;91.03;;;;;;;;;;4364375;32;318957;-81
2024/01/07 07:16:19;;;;;;;100.80;64.53;;;;;;;;;;4347972;32;318577;-81
2024/01/07 07:18:47;;;;;;;71.47;44.80;;;;;;;;;;4365489;32;319503;-82
2024/01/07 07:21:15;;;;;;;55.17;32.23;;;;;;;;;;4355581;32;318202;-80
2024/01/07 07:23:41;;;;;;;45.70;29.13;;;;;;;;;;4369728;32;318173;-80
2024/01/07 07:26:09;;;;;;;52.73;33.57;;;;;;;;;;4351749;32;318321;-83
2024/01/07 07:28:37;;;;;;;52.27;35.00;;;;;;;;;;4363109;32;318121;-81
2024/01/07 07:31:05;;;;;;;38.20;26.93;;;;;;;;;;4358171;32;318166;-81
2024/01/07 07:33:33;;;;;;;40.13;26.30;;;;;;;;;;4365461;32;317644;-81
2024/01/07 07:36:00;;;;;;;45.77;34.37;;;;;;;;;;4359033;32;317763;-79
2024/01/07 07:38:28;;;;;;;56.10;33.37;;;;;;;;;;4364901;32;318713;-82
2024/01/07 07:40:55;;;;;;;66.70;44.27;;;;;;;;;;4370009;32;317963;-82
2024/01/07 07:43:22;;;;;;;63.00;43.27;;;;;;;;;;4356336;32;419679;-81
2024/01/07 07:45:50;;;;;;;63.27;42.63;;;;;;;;;;4368949;32;317806;-80
2024/01/07 07:48:19;;;;;;;43.97;32.27;;;;;;;;;;4341864;32;319141;-82
2024/01/07 07:50:50;;;;;;;49.30;32.67;;;;;;;;;;4368704;32;319396;-82
2024/01/07 07:53:18;;;;;;;47.90;32.60;;;;;;;;;;4351288;32;354236;-83
2024/01/07 07:55:45;;;;;;;17.30;12.63;;;;;;;;;;4366972;32;319198;-81
2024/01/07 07:58:12;;;;;;;29.40;22.40;;;;;;;;;;4344989;32;318327;-81
2024/01/07 08:00:40;;;;;;;39.93;24.77;;;;;;;;;;4360435;32;319198;-82
2024/01/07 08:03:08;;;;;;;32.20;22.43;;;;;;;;;;4344029;32;319089;-82
2024/01/07 08:05:35;;;;;;;39.53;26.07;;;;;;;;;;4366957;32;318718;-79
2024/01/07 08:08:06;;;;;;;36.03;24.50;;;;;;;;;;4354673;32;319134;-81
2024/01/07 08:10:35;;;;;;;33.73;22.60;;;;;;;;;;4369934;32;319152;-79
2024/01/07 08:13:02;;;;;;;32.27;20.40;;;;;;;;;;4354372;32;319079;-79
2024/01/07 08:15:30;;;;;;;23.60;16.23;;;;;;;;;;4364272;32;319273;-79
2024/01/07 08:17:56;;;;;;;29.07;20.20;;;;;;;;;;4353971;32;319212;-78
2024/01/07 08:20:23;;;;;;;13.90;11.27;;;;;;;;;;4332350;32;319280;-80
2024/01/07 08:22:51;;;;;;;41.53;27.57;;;;;;;;;;4336605;32;319263;-80
2024/01/07 08:25:22;;;;;;;39.17;28.33;;;;;;;;;;4326587;32;319281;-81
2024/01/07 08:27:50;;;;;;;40.07;28.67;;;;;;;;;;4337602;32;319410;-81
2024/01/07 08:30:17;;;;;;;37.80;25.70;;;;;;;;;;4323210;32;320563;-79
2024/01/07 08:32:44;;;;;;;28.87;20.10;;;;;;;;;;4314927;32;319215;-81
2024/01/07 08:35:12;;;;;;;32.77;21.53;;;;;;;;;;4326488;32;328214;-79
2024/01/07 08:37:40;;;;;;;30.33;18.23;;;;;;;;;;4337089;32;319326;-80
2024/01/07 08:40:11;;;;;;;34.23;22.83;;;;;;;;;;4321465;32;319716;-81
2024/01/07 08:42:40;;;;;;;36.27;21.63;;;;;;;;;;4339588;32;319291;-79
2024/01/07 08:45:09;;;;;;;23.47;16.97;;;;;;;;;;4330031;32;319224;-81
2024/01/07 08:47:37;;;;;;;29.33;16.53;;;;;;;;;;4335693;32;344393;-81
2024/01/07 08:50:05;;;;;;;7.60;4.60;;;;;;;;;;4324914;32;319153;-80
2024/01/07 08:52:35;;;;;;;12.90;2.97;;;;;;;;;;4345804;32;316548;-79
2024/01/07 08:55:05;;;;;;;5.60;2.20;;;;;;;;;;4337869;32;318152;-78
2024/01/07 08:57:34;;;;;;;6.37;2.17;;;;;;;;;;4349986;32;315484;-78
2024/01/07 09:00:04;;;;;;;6.57;2.30;;;;;;;;;;4339690;32;317439;-77
2024/01/07 09:02:31;;;;;;;5.13;1.60;;;;;;;;;;4379604;32;315506;-77
2024/01/07 09:04:59;;;;;;;2.33;2.10;;;;;;;;;;4340590;32;317234;-78
2024/01/07 09:07:27;;;;;;;6.93;3.80;;;;;;;;;;4346216;32;317371;-78
2024/01/07 09:09:59;;;;;;;12.43;4.97;;;;;;;;;;4348077;32;315523;-77
2024/01/07 09:12:28;;;;;;;9.40;2.37;;;;;;;;;;4329784;32;417757;-78
2024/01/07 09:14:56;;;;;;;5.30;2.33;;;;;;;;;;4354183;32;316550;-80
2024/01/07 09:17:25;;;;;;;2.60;1.77;;;;;;;;;;4397263;32;416795;-80
2024/01/07 09:19:53;;;;;;;4.60;1.90;;;;;;;;;;4376132;32;315819;-81
2024/01/07 09:22:21;;;;;;;4.27;1.70;;;;;;;;;;4406097;32;325601;-79
2024/01/07 09:24:49;;;;;;;6.43;2.00;;;;;;;;;;4419721;32;317281;-79
2024/01/07 09:27:16;;;;;;;3.27;1.43;;;;;;;;;;4344524;32;317318;-80
2024/01/07 09:29:44;;;;;;;5.23;2.00;;;;;;;;;;4352997;32;344385;-80
2024/01/07 09:32:13;;;;;;;3.77;2.10;;;;;;;;;;4336826;32;317005;-82
2024/01/07 09:34:44;;;;;;;7.37;2.77;;;;;;;;;;4354944;32;316766;-80
2024/01/07 09:37:13;;;;;;;7.93;3.37;;;;;;;;;;4342735;32;316640;-81
2024/01/07 09:39:45;;;;;;;5.20;2.47;;;;;;;;;;4384537;32;316978;-80
2024/01/07 09:42:15;;;;;;;5.17;3.13;;;;;;;;;;4411543;32;315331;-79
2024/01/07 09:44:43;;;;;;;4.70;2.57;;;;;;;;;;4364701;32;316647;-81
2024/01/07 09:47:12;;;;;;;3.90;1.70;;;;;;;;;;4337165;32;316809;-79
2024/01/07 09:49:45;;;;;;;4.17;1.33;;;;;;;;;;4348029;32;317304;-78
2024/01/07 09:52:13;;;;;;;2.73;1.63;;;;;;;;;;4333313;32;316951;-80
2024/01/07 09:54:43;;;;;;;5.97;1.90;;;;;;;;;;4349026;32;316387;-80
2024/01/07 09:57:11;;;;;;;8.87;3.20;;;;;;;;;;4338699;32;316499;-79
2024/01/07 09:59:40;;;;;;;5.07;2.70;;;;;;;;;;4347853;32;316967;-79
2024/01/07 10:02:09;;;;;;;3.63;2.03;;;;;;;;;;4331192;32;317297;-78
2024/01/07 10:04:38;;;;;;;2.80;1.30;;;;;;;;;;4339761;32;316481;-79
2024/01/07 10:07:07;;;;;;;4.70;1.73;;;;;;;;;;4339993;32;317416;-80
2024/01/07 10:09:35;;;;;;;3.40;1.20;;;;;;;;;;4341458;32;317140;-81
2024/01/07 10:12:02;;;;;;;3.53;1.33;;;;;;;;;;4338221;32;316927;-81
2024/01/07 10:14:30;;;;;;;7.63;1.70;;;;;;;;;;4340244;32;317410;-80
2024/01/07 10:16:59;;;;;;;8.30;3.40;;;;;;;;;;4337284;32;317199;-83
2024/01/07 10:19:31;;;;;;;5.97;2.60;;;;;;;;;;4335682;32;317529;-83
2024/01/07 10:24:48;;;;;;;2.50;1.40;;;;;;;;;;4319621;32;316528;-80
2024/01/07 10:27:19;;;;;;;2.70;1.50;;;;;;;;;;4310536;32;317167;-79
2024/01/07 10:29:49;;;;;;;5.17;2.30;;;;;;;;;;4321006;32;316979;-81
2024/01/07 10:32:16;;;;;;;2.83;1.50;;;;;;;;;;4310078;32;317461;-79
2024/01/07 10:34:49;;;;;;;6.03;2.70;;;;;;;;;;4334279;32;317065;-81
2024/01/07 10:37:17;;;;;;;1.93;1.47;;;;;;;;;;4322927;32;317062;-81
2024/01/07 10:39:51;;;;;;;4.83;1.10;;;;;;;;;;4335662;32;317335;-79
2024/01/07 10:42:19;;;;;;;2.80;1.30;;;;;;;;;;4315901;32;348749;-79
2024/01/07 10:44:46;;;;;;;1.93;1.20;;;;;;;;;;4334599;32;316540;-80
2024/01/07 10:47:17;;;;;;;5.83;1.40;;;;;;;;;;4325202;32;317143;-79
2024/01/07 10:49:51;;;;;;;5.67;1.27;;;;;;;;;;4333651;32;316970;-80
2024/01/07 10:52:23;;;;;;;2.67;1.50;;;;;;;;;;4317948;32;327865;-79
2024/01/07 10:54:53;;;;;;;3.23;1.80;;;;;;;;;;4320844;32;350225;-81
2024/01/07 10:57:27;;;;;;;3.03;1.47;;;;;;;;;;4325716;32;317142;-80
2024/01/07 10:59:57;;;;;;;1.27;0.80;;;;;;;;;;4334388;32;317146;-81
2024/01/07 11:02:29;;;;;;;1.90;0.87;;;;;;;;;;4316830;32;416324;-80
2024/01/07 11:05:09;;;;;;;3.30;1.43;;;;;;;;;;4334836;32;317272;-80
2024/01/07 11:07:42;;;;;;;4.20;1.37;;;;;;;;;;4323253;32;416676;-80
2024/01/07 11:10:17;;;;;;;5.73;1.60;;;;;;;;;;4315777;32;317834;-79
2024/01/07 11:12:54;;;;;;;1.80;1.20;;;;;;;;;;4335581;32;316916;-79
2024/01/07 11:16:00;;;;;;;5.23;1.47;;;;;;;;;;4323526;32;417825;-81
2024/01/07 11:18:37;;;;;;;7.23;1.50;;;;;;;;;;4313064;32;419251;-79
2024/01/07 11:21:06;;;;;;;4.03;1.23;;;;;;;;;;4315831;32;317598;-77
2024/01/07 11:23:34;;;;;;;2.63;1.17;;;;;;;;;;4334814;32;315562;-78
2024/01/07 11:26:04;;;;;;;9.30;1.37;;;;;;;;;;4327491;32;317504;-79
2024/01/07 11:28:49;;;;;;;2.67;1.40;;;;;;;;;;4337219;32;316161;-80
2024/01/07 11:31:17;;;;;;;2.30;1.80;;;;;;;;;;4327687;32;316633;-79
2024/01/07 11:33:47;;;;;;;3.27;1.60;;;;;;;;;;4321607;32;317302;-79
2024/01/07 11:36:17;;;;;;;2.43;1.07;;;;;;;;;;4311808;32;316625;-80
2024/01/07 11:38:45;;;;;;;1.73;1.10;;;;;;;;;;4334759;32;317249;-81
2024/01/07 11:41:18;;;;;;;2.30;1.07;;;;;;;;;;4318818;32;317136;-80
2024/01/07 11:43:55;;;;;;;1.83;1.00;;;;;;;;;;4335064;32;315386;-79
2024/01/07 11:46:23;;;;;;;3.63;2.23;;;;;;;;;;4316454;32;416106;-80
2024/01/07 11:48:57;;;;;;;3.23;1.60;;;;;;;;;;4336243;32;317240;-81
2024/01/07 11:51:25;;;;;;;4.07;1.23;;;;;;;;;;4333361;32;415970;-81
2024/01/07 11:53:52;;;;;;;4.23;1.23;;;;;;;;;;4347128;32;315053;-81
2024/01/07 11:56:21;;;;;;;2.33;1.40;;;;;;;;;;4326405;32;317099;-79
2024/01/07 11:58:50;;;;;;;7.13;1.50;;;;;;;;;;4345186;32;317122;-79
2024/01/07 12:01:18;;;;;;;4.50;2.00;;;;;;;;;;4335836;32;316592;-79
2024/01/07 12:03:47;;;;;;;2.37;1.20;;;;;;;;;;4346443;32;316008;-81
2024/01/07 12:06:14;;;;;;;2.93;1.10;;;;;;;;;;4315156;32;317292;-80
2024/01/07 12:08:43;;;;;;;3.83;1.90;;;;;;;;;;4333218;32;316837;-81
2024/01/07 12:11:10;;;;;;;5.33;2.60;;;;;;;;;;4321140;32;317209;-78
2024/01/07 12:13:40;;;;;;;6.77;1.00;;;;;;;;;;4321650;32;316928;-79
2024/01/07 12:16:10;;;;;;;2.10;0.90;;;;;;;;;;4318763;32;317692;-82
2024/01/07 12:18:38;;;;;;;3.17;1.23;;;;;;;;;;4358049;32;315337;-81
2024/01/07 12:21:06;;;;;;;6.63;4.33;;;;;;;;;;4311917;32;315688;-81
2024/01/07 12:23:35;;;;;;;6.30;2.70;;;;;;;;;;4337765;32;316930;-80
2024/01/07 12:26:10;;;;;;;13.10;3.00;;;;;;;;;;4320266;32;316743;-83
2024/01/07 12:28:37;;;;;;;1.90;1.63;;;;;;;;;;4316470;33;317685;-80
2024/01/07 12:31:08;;;;;;;9.87;2.87;;;;;;;;;;4323645;32;317040;-79
2024/01/07 12:33:39;;;;;;;4.13;2.70;;;;;;;;;;4336551;32;316626;-80
2024/01/07 12:36:16;;;;;;;3.50;1.90;;;;;;;;;;4320361;32;317343;-80
2024/01/07 12:38:45;;;;;;;3.43;2.00;;;;;;;;;;4335169;32;315288;-78
2024/01/07 12:41:13;;;;;;;9.30;5.03;;;;;;;;;;4336673;32;317619;-79
2024/01/07 12:43:41;;;;;;;8.40;3.90;;;;;;;;;;4336371;32;315770;-80
2024/01/07 12:46:11;;;;;;;8.67;4.00;;;;;;;;;;4302970;32;316655;-81
2024/01/07 12:48:39;;;;;;;6.57;4.50;;;;;;;;;;4331695;32;315275;-80
2024/01/07 12:51:09;;;;;;;9.17;5.27;;;;;;;;;;4325303;32;317168;-79
2024/01/07 12:53:35;;;;;;;9.10;4.57;;;;;;;;;;4334438;32;317258;-78
2024/01/07 12:56:03;;;;;;;6.30;3.10;;;;;;;;;;4322638;32;317155;-77
2024/01/07 12:58:31;;;;;;;6.27;3.17;;;;;;;;;;4325088;32;317121;-79
2024/01/07 13:00:57;;;;;;;10.03;3.87;;;;;;;;;;4320669;32;316455;-76
2024/01/07 13:03:26;;;;;;;12.77;6.83;;;;;;;;;;4327235;32;319005;-77
2024/01/07 13:05:54;;;;;;;10.43;3.10;;;;;;;;;;4332856;32;317826;-79
2024/01/07 13:08:22;;;;;;;4.67;1.57;;;;;;;;;;4298268;32;417005;-79
2024/01/07 13:10:50;;;;;;;4.23;2.77;;;;;;;;;;4334512;32;317095;-78
2024/01/07 13:13:18;;;;;;;3.03;2.00;;;;;;;;;;4324588;32;317097;-77
2024/01/07 13:15:45;;;;;;;2.13;1.87;;;;;;;;;;4328679;32;317136;-77
2024/01/07 13:18:16;;;;;;;2.77;1.77;;;;;;;;;;4318897;32;317138;-79
2024/01/07 13:20:45;;;;;;;2.03;1.40;;;;;;;;;;4324618;32;316314;-78
2024/01/07 13:23:14;;;;;;;3.70;1.70;;;;;;;;;;4308270;32;317541;-80
2024/01/07 13:25:41;;;;;;;11.17;6.50;;;;;;;;;;4329586;32;317256;-78
2024/01/07 13:28:10;;;;;;;15.30;7.40;;;;;;;;;;4313154;32;318239;-77
2024/01/07 13:30:40;;;;;;;69.83;42.13;;;;;;;;;;4328440;32;317730;-79
2024/01/07 13:33:07;;;;;;;37.50;19.83;;;;;;;;;;4340030;32;319343;-78
2024/01/07 13:35:35;;;;;;;7.67;4.50;;;;;;;;;;4347819;32;319266;-78
2024/01/07 13:38:06;;;;;;;15.77;7.97;;;;;;;;;;4315983;32;353887;-77
2024/01/07 13:40:36;;;;;;;11.13;4.30;;;;;;;;;;4328249;32;317315;-77
2024/01/07 13:43:03;;;;;;;11.03;5.67;;;;;;;;;;4317607;32;318152;-78
2024/01/07 13:45:31;;;;;;;13.87;7.17;;;;;;;;;;4327893;32;317895;-78
2024/01/07 13:47:57;;;;;;;9.07;4.87;;;;;;;;;;4311856;32;317686;-77
2024/01/07 13:50:25;;;;;;;14.10;6.97;;;;;;;;;;4324136;32;316704;-78
2024/01/07 13:52:52;;;;;;;14.30;9.30;;;;;;;;;;4331620;32;316550;-79
2024/01/07 13:55:20;;;;;;;11.87;6.07;;;;;;;;;;4322817;32;318088;-79
2024/01/07 13:57:48;;;;;;;7.03;4.70;;;;;;;;;;4331796;32;317226;-79
2024/01/07 14:00:18;;;;;;;8.37;4.90;;;;;;;;;;4316617;32;327089;-79
2024/01/07 14:02:46;;;;;;;11.47;5.90;;;;;;;;;;4332445;32;316535;-79
2024/01/07 14:05:14;;;;;;;7.43;5.20;;;;;;;;;;4321382;32;317964;-77
2024/01/07 14:07:43;;;;;;;9.53;5.57;;;;;;;;;;4331133;32;316876;-78
2024/01/07 14:10:09;;;;;;;14.47;7.77;;;;;;;;;;4317501;32;317254;-78
2024/01/07 14:12:39;;;;;;;9.83;5.60;;;;;;;;;;4328880;32;318516;-78
2024/01/07 14:15:08;;;;;;;10.97;5.90;;;;;;;;;;4322552;32;316841;-77
2024/01/07 14:17:36;;;;;;;14.37;5.00;;;;;;;;;;4330650;32;318012;-79
2024/01/07 14:20:08;;;;;;;13.10;5.50;;;;;;;;;;4319846;32;317517;-77
2024/01/07 14:22:36;;;;;;;20.53;12.57;;;;;;;;;;4324930;32;318052;-78
2024/01/07 14:25:05;;;;;;;26.47;16.13;;;;;;;;;;4320624;32;319271;-78
2024/01/07 14:27:35;;;;;;;24.43;12.50;;;;;;;;;;4332214;32;319326;-79
2024/01/07 14:30:04;;;;;;;24.07;15.20;;;;;;;;;;4309902;32;337677;-77
2024/01/07 14:32:33;;;;;;;26.67;14.83;;;;;;;;;;4338688;32;319257;-79
2024/01/07 14:35:00;;;;;;;24.47;15.40;;;;;;;;;;4337667;32;319162;-78
2024/01/07 14:37:27;;;;;;;37.83;21.47;;;;;;;;;;4347472;32;318537;-79
2024/01/07 14:39:54;;;;;;;78.17;38.77;;;;;;;;;;4344080;32;335456;-79